Aérodrome :
LOGIN :

S'inscrire | Disclaimer

   EN    FR    IT 

 










Légende :    VFR   VFR Marginal   IFR   IFR Intensif   IFR Très Intensif
Visi : 
Plafond : 
>= 8 km
>= 3000ft
5 à 8 km
1000 à 3000 ft
1500m à 5 km
500 à 1000 ft
800 à 1500m
200 à 500 ft
< 800m
< 200 ft
Symboles :   Orages  Brouillard  Fortes neiges  Fortes précipitations  Vent > 20 kt
SIGMETs :   Divers  Orages  Givrage  Turbulence  Onde Orograph.  Cendres Volcan.







- Altitude de l'aérodrome : 17 ft
- Code IATA : MPL
- Voir les cartes d'approche


LFMT - Montpellier Méditerranée

DERNIER METAR :
  • 180300Z AUTO 10012KT 8000 BKN010/// OVC017/// ///TCU 17/16 Q1018 TEMPO 12025G35KT 4000 SHRA

METARs EXPIRÉS :
  • 180230Z AUTO 09014KT 7000 BKN011/// OVC016/// ///TCU 17/15 Q1018 TEMPO 12025G35KT 4000 SHRA BKN005 BKN010TCU
  • 180200Z AUTO 08013KT 8000 BKN010/// OVC015/// ///TCU 17/15 Q1019 TEMPO BKN003
  • 180130Z AUTO 08011KT 9000 OVC009 17/16 Q1019 TEMPO BKN003
  • 180100Z AUTO 08010KT 8000 OVC008 17/15 Q1019 TEMPO BKN003
  • 180030Z AUTO 10011KT 9999 OVC008 18/17 Q1020 TEMPO BKN003

TAF TAF LFMT
Valide du 18 à 03h jusqu'au 19 à 03h UTC


180200Z 1803/1903 12010KT 9999 BKN020
TEMPO 1803/1903 12025G35KT 4000 SHRA BKN005 BKN010TCU
PROB30
TEMPO 1820/1903 12025G35KT 2000 TSRA BKN003 BKN010CB
ATIS : +33 4 67 13 11 70
Pas de NOTAMs connus pour ce terrain.



MET'MAP, la Météo Aéronautique d'un coup d'oeil ! - Copyright ORBIFLY Décembre 2007 - Disclaimer

ORBIFLY MET'MAP TEAM :

Programmation & Développement : Alexandra Zaïnal
Conception & Développement : Baudouin d'Aumeries
Co-Programmation & Développement : Marc-Olivier Méhu
Soutien technique & logistique : Manuel Goepfert

Contact : metmap@orbifly.com




SOURCES & CREDITS :

   NOAA